Logo
Newest Metar:
CYXE 171300Z 19008KT 15SM SCT160 M07/M08 A2970 RMK AC3 SLP090

Last 10 Metars:
CYXE 171200Z 19010KT 15SM SKC M06/M08 A2972 RMK SLP097
CYXE 171100Z 19010KT 15SM SKC M06/M07 A2976 RMK PRESFR SLP109
CYXE 171000Z 21009KT 15SM SKC M06/M08 A2979 RMK SLP120
CYXE 170900Z 19007KT 15SM SKC M07/M09 A2980 RMK SLP124
CYXE 170800Z 21010KT 15SM FEW080 FEW200 M07/M10 A2983 RMK AC1CI1 SLP132
CYXE 170700Z 21006KT 15SM FEW160 M09/M11 A2985 RMK AC1 SLP142
CYXE 170600Z 23007KT 15SM FEW160 M09/M10 A2987 RMK AC2 AURBO SLP150
CYXE 170500Z 22009KT 15SM SCT170 M07/M09 A2988 RMK AC4 SLP153
CYXE 170400Z 23010KT 15SM SCT170 M06/M08 A2988 RMK AC4 SLP153
CYXE 170300Z 24010KT 15SM SCT170 M04/M07 A2988 RMK AC4 SLP154

Click here for Regina (YQR) International Weather